createdAt,value
2023-01-10T00:01:49.237Z,16.73
2023-01-10T00:04:15.660Z,17.98
2023-01-10T00:06:42.091Z,17.20
2023-01-10T00:09:10.133Z,16.77
2023-01-10T00:11:55.121Z,15.95
2023-01-10T00:14:21.476Z,15.00
2023-01-10T00:16:47.845Z,15.32
2023-01-10T00:19:14.258Z,15.32
2023-01-10T00:21:40.670Z,14.73
2023-01-10T00:24:19.337Z,14.18
2023-01-10T00:26:53.638Z,13.32
2023-01-10T00:29:22.406Z,13.80
2023-01-10T00:31:48.830Z,12.90
2023-01-10T00:34:15.556Z,12.43
2023-01-10T00:36:42.250Z,13.35
2023-01-10T00:39:12.366Z,12.50
2023-01-10T00:41:57.825Z,11.50
2023-01-10T00:44:24.193Z,11.68
2023-01-10T00:46:50.611Z,11.55
2023-01-10T00:49:16.989Z,10.85
2023-01-10T00:51:43.681Z,10.75
2023-01-10T00:54:10.829Z,10.30
2023-01-10T00:56:37.483Z,8.80
2023-01-10T00:59:04.512Z,9.30
2023-01-10T01:01:31.241Z,7.65
2023-01-10T01:03:59.358Z,7.97
2023-01-10T01:06:26.537Z,7.13
2023-01-10T01:08:52.949Z,6.45
2023-01-10T01:11:19.369Z,6.75
2023-01-10T01:13:45.777Z,5.78
2023-01-10T01:16:12.712Z,5.38
2023-01-10T01:18:39.166Z,5.13
2023-01-10T01:21:05.821Z,4.80
2023-01-10T01:23:33.590Z,4.82
2023-01-10T01:26:00.312Z,4.10
2023-01-10T01:28:26.712Z,4.22
2023-01-10T01:30:53.142Z,3.30
2023-01-10T01:33:20.413Z,2.58
2023-01-10T01:35:48.476Z,3.10
2023-01-10T01:38:14.902Z,3.08
2023-01-10T01:40:41.687Z,2.97
2023-01-10T01:43:28.333Z,3.28
2023-01-10T01:45:55.581Z,3.53
2023-01-10T01:48:30.807Z,4.30
2023-01-10T01:51:10.627Z,3.42
2023-01-10T01:53:36.905Z,3.60
2023-01-10T01:56:08.364Z,4.32
2023-01-10T01:58:47.961Z,4.40
2023-01-10T02:01:15.304Z,4.45
2023-01-10T02:03:43.150Z,4.20
2023-01-10T02:06:09.810Z,4.22
2023-01-10T02:08:38.553Z,4.22
2023-01-10T02:11:10.589Z,3.80
2023-01-10T02:13:41.569Z,4.07
2023-01-10T02:16:08.807Z,4.32
2023-01-10T02:18:36.294Z,4.10
2023-01-10T02:21:18.322Z,4.10
2023-01-10T02:23:52.781Z,4.50
2023-01-10T02:26:28.621Z,4.60
2023-01-10T02:29:21.792Z,4.63
2023-01-10T02:32:06.742Z,5.47
2023-01-10T02:35:10.944Z,5.00
2023-01-10T02:38:10.414Z,5.35
2023-01-10T02:40:43.930Z,6.00
2023-01-10T02:43:14.734Z,7.05
2023-01-10T02:45:47.379Z,7.82
2023-01-10T02:48:13.799Z,7.22
2023-01-10T02:50:43.286Z,7.60
2023-01-10T02:53:24.107Z,8.75
2023-01-10T02:55:56.706Z,8.85
2023-01-10T02:58:33.711Z,8.90
2023-01-10T03:01:18.581Z,10.38
2023-01-10T03:04:09.980Z,9.63
2023-01-10T03:06:56.137Z,10.30
2023-01-10T03:09:34.531Z,10.68
2023-01-10T03:12:13.513Z,11.43
2023-01-10T03:14:40.900Z,11.50
2023-01-10T03:17:09.678Z,12.00
2023-01-10T03:19:42.010Z,11.50
2023-01-10T03:22:10.152Z,12.18
2023-01-10T03:24:41.855Z,11.95
2023-01-10T03:27:20.550Z,12.10
2023-01-10T03:29:52.757Z,11.95
2023-01-10T03:32:22.008Z,11.93
2023-01-10T03:34:48.506Z,10.95
2023-01-10T03:37:19.665Z,11.60
2023-01-10T03:40:00.113Z,11.15
2023-01-10T03:42:56.312Z,11.82
2023-01-10T03:45:29.926Z,10.45
2023-01-10T03:47:57.688Z,10.27
2023-01-10T03:50:25.317Z,11.10
2023-01-10T03:52:51.842Z,10.40
2023-01-10T03:55:21.596Z,11.10
2023-01-10T03:57:48.857Z,10.95
2023-01-10T04:00:16.470Z,11.00
2023-01-10T04:02:44.142Z,10.80
2023-01-10T04:05:10.819Z,11.07
2023-01-10T04:07:37.273Z,10.38
2023-01-10T04:10:05.223Z,10.68
2023-01-10T04:12:31.939Z,11.00
2023-01-10T04:14:58.325Z,10.88
2023-01-10T04:17:24.757Z,10.43
2023-01-10T04:19:51.251Z,10.10
2023-01-10T04:22:17.729Z,9.63
2023-01-10T04:24:44.284Z,11.13
2023-01-10T04:27:10.734Z,10.55
2023-01-10T04:29:37.178Z,10.00
2023-01-10T04:32:03.590Z,10.20
2023-01-10T04:34:30.008Z,10.40
2023-01-10T04:36:56.418Z,10.20
2023-01-10T04:39:22.795Z,9.88
2023-01-10T04:41:49.562Z,9.70
2023-01-10T04:44:15.965Z,9.93
2023-01-10T04:46:42.373Z,10.68
2023-01-10T04:49:10.238Z,10.23
2023-01-10T04:51:36.738Z,9.93
2023-01-10T04:54:03.180Z,10.07
2023-01-10T04:56:29.576Z,9.63
2023-01-10T04:58:56.405Z,8.90
2023-01-10T05:01:24.284Z,9.63
2023-01-10T05:03:51.927Z,9.50
2023-01-10T05:06:19.350Z,9.65
2023-01-10T05:08:45.856Z,10.05
2023-01-10T05:11:12.838Z,9.93
2023-01-10T05:13:39.670Z,8.75
2023-01-10T05:16:06.512Z,9.75
2023-01-10T05:18:33.261Z,8.32
2023-01-10T05:21:01.463Z,9.32
2023-01-10T05:23:28.697Z,9.13
2023-01-10T05:25:55.152Z,9.40
2023-01-10T05:28:21.551Z,9.38
2023-01-10T05:30:47.987Z,9.15
2023-01-10T05:33:14.387Z,10.18
2023-01-10T05:35:40.768Z,9.50
2023-01-10T05:38:07.225Z,8.75
2023-01-10T05:40:33.811Z,9.43
2023-01-10T05:43:00.307Z,10.02
2023-01-10T05:45:26.788Z,9.18
2023-01-10T05:47:53.195Z,9.65
2023-01-10T05:50:19.652Z,9.73
2023-01-10T05:52:46.031Z,9.48
2023-01-10T05:55:12.491Z,10.07
2023-01-10T05:57:38.872Z,9.80
2023-01-10T06:00:06.591Z,9.98
2023-01-10T06:02:33.428Z,9.68
2023-01-10T06:04:59.943Z,9.25
2023-01-10T06:07:26.332Z,9.73
2023-01-10T06:09:52.764Z,10.57
2023-01-10T06:12:19.237Z,10.75
2023-01-10T06:14:46.157Z,10.15
2023-01-10T06:17:12.764Z,9.77
2023-01-10T06:19:39.235Z,9.57
2023-01-10T06:22:05.802Z,9.52
2023-01-10T06:24:32.237Z,10.93
2023-01-10T06:26:58.709Z,10.20
2023-01-10T06:29:25.140Z,9.95
2023-01-10T06:31:51.575Z,10.35
2023-01-10T06:34:18.030Z,10.95
2023-01-10T06:36:44.459Z,10.32
2023-01-10T06:39:10.957Z,10.13
2023-01-10T06:41:37.422Z,10.80
2023-01-10T06:44:04.078Z,10.90
2023-01-10T06:46:30.505Z,10.63
2023-01-10T06:48:56.942Z,11.35
2023-01-10T06:51:23.322Z,12.07
2023-01-10T06:53:49.729Z,12.55
2023-01-10T06:56:16.138Z,13.32
2023-01-10T06:58:42.589Z,13.70
2023-01-10T07:01:16.801Z,13.48
2023-01-10T07:03:43.301Z,14.80
2023-01-10T07:06:10.203Z,15.00
2023-01-10T07:08:38.137Z,15.18
2023-01-10T07:11:04.693Z,15.85
2023-01-10T07:13:31.164Z,15.98
2023-01-10T07:16:08.739Z,17.17
2023-01-10T07:18:36.177Z,17.63
2023-01-10T07:21:02.675Z,17.05
2023-01-10T07:23:31.058Z,17.92
2023-01-10T07:25:58.735Z,18.23
2023-01-10T07:28:25.189Z,18.77
2023-01-10T07:30:51.632Z,18.27
2023-01-10T07:33:17.991Z,19.35
2023-01-10T07:35:44.711Z,20.08
2023-01-10T07:38:11.146Z,19.63
2023-01-10T07:40:37.554Z,19.13
2023-01-10T07:43:04.062Z,18.77
2023-01-10T07:45:30.526Z,19.63
2023-01-10T07:47:58.380Z,20.60
2023-01-10T07:50:24.975Z,19.38
2023-01-10T07:52:51.383Z,20.88
2023-01-10T07:55:18.028Z,22.50
2023-01-10T07:57:44.562Z,21.65
2023-01-10T08:00:11.492Z,23.02
2023-01-10T08:02:38.094Z,22.65
2023-01-10T08:05:04.822Z,23.90
2023-01-10T08:07:32.157Z,23.20
2023-01-10T08:09:58.950Z,22.63
2023-01-10T08:12:25.432Z,24.38
2023-01-10T08:14:52.567Z,24.15
2023-01-10T08:17:19.566Z,23.60
2023-01-10T08:19:45.975Z,24.40
2023-01-10T08:22:12.840Z,25.08
2023-01-10T08:24:39.397Z,23.58
2023-01-10T08:27:05.841Z,24.35
2023-01-10T08:29:32.249Z,23.92
2023-01-10T08:31:58.678Z,23.58
2023-01-10T08:34:25.466Z,24.30
2023-01-10T08:36:52.969Z,22.40
2023-01-10T08:39:22.242Z,22.88
2023-01-10T08:41:49.368Z,20.92
2023-01-10T08:44:15.806Z,21.23
2023-01-10T08:46:42.834Z,21.35
2023-01-10T08:49:09.428Z,22.20
2023-01-10T08:51:36.160Z,20.92
2023-01-10T08:54:02.659Z,22.85
2023-01-10T08:56:29.117Z,20.88
2023-01-10T08:58:55.515Z,21.08
2023-01-10T09:01:22.061Z,21.25
2023-01-10T09:03:48.528Z,21.85
2023-01-10T09:06:14.955Z,19.50
2023-01-10T09:08:41.352Z,19.63
2023-01-10T09:11:07.872Z,20.33
2023-01-10T09:13:34.315Z,18.73
2023-01-10T09:16:00.955Z,16.95
2023-01-10T09:18:27.455Z,18.58
2023-01-10T09:20:54.265Z,17.65
2023-01-10T09:23:22.235Z,17.15
2023-01-10T09:25:53.480Z,16.30
2023-01-10T09:28:21.075Z,16.90
2023-01-10T09:30:48.159Z,17.02
2023-01-10T09:33:15.819Z,16.27
2023-01-10T09:35:42.680Z,17.38
2023-01-10T09:38:16.027Z,17.38
2023-01-10T09:41:03.905Z,18.60
2023-01-10T09:43:52.154Z,18.50
2023-01-10T09:46:29.228Z,18.00
2023-01-10T09:49:01.925Z,19.45
2023-01-10T09:51:43.508Z,21.60
2023-01-10T09:54:15.871Z,20.30
2023-01-10T09:56:42.813Z,20.50
2023-01-10T09:59:15.847Z,22.17
2023-01-10T10:01:42.315Z,21.38
2023-01-10T10:04:14.339Z,21.23
2023-01-10T10:06:40.918Z,20.75
2023-01-10T10:09:11.659Z,19.48
2023-01-10T10:11:55.967Z,19.55
2023-01-10T10:14:42.401Z,18.85
2023-01-10T10:17:20.664Z,20.27
2023-01-10T10:19:49.981Z,20.23
2023-01-10T10:22:54.023Z,18.85
2023-01-10T10:25:42.071Z,19.35
2023-01-10T10:28:37.339Z,19.60
2023-01-10T10:31:15.795Z,19.08
2023-01-10T10:33:50.749Z,20.08
2023-01-10T10:36:33.851Z,19.83
2023-01-10T10:39:01.201Z,20.83
2023-01-10T10:41:41.303Z,18.70
2023-01-10T10:44:41.744Z,18.92
2023-01-10T10:47:15.274Z,17.38
2023-01-10T10:49:43.916Z,16.98
2023-01-10T10:52:36.857Z,17.15
2023-01-10T10:57:32.507Z,15.85
2023-01-10T11:00:00.427Z,15.10
2023-01-10T11:02:29.599Z,15.90
2023-01-10T11:05:05.358Z,14.98
2023-01-10T11:07:37.216Z,14.80
2023-01-10T11:10:21.766Z,11.63
2023-01-10T11:12:51.062Z,16.23
2023-01-10T11:15:35.818Z,16.88
2023-01-10T11:18:16.678Z,16.23
2023-01-10T11:21:02.753Z,15.02
2023-01-10T11:23:42.276Z,14.90
2023-01-10T11:26:21.372Z,14.23
2023-01-10T11:28:47.885Z,14.23
2023-01-10T11:31:14.643Z,14.63
2023-01-10T11:33:41.251Z,13.85
2023-01-10T11:36:10.061Z,14.57
2023-01-10T11:38:36.606Z,13.80
2023-01-10T11:41:23.624Z,14.13
2023-01-10T11:43:50.110Z,14.10
2023-01-10T11:46:22.587Z,13.70
2023-01-10T11:51:39.773Z,13.63
2023-01-10T11:54:23.736Z,14.05
2023-01-10T11:56:59.192Z,13.43
2023-01-10T11:59:26.448Z,13.25
2023-01-10T12:01:55.218Z,15.43
2023-01-10T12:04:22.304Z,12.98
2023-01-10T12:06:51.260Z,12.32
2023-01-10T12:09:33.200Z,11.65
2023-01-10T12:12:14.491Z,12.45
2023-01-10T12:14:41.069Z,11.20
2023-01-10T12:17:12.419Z,13.25
2023-01-10T12:19:38.887Z,11.13
2023-01-10T12:22:07.519Z,10.85
2023-01-10T12:24:35.927Z,11.65
2023-01-10T12:27:03.553Z,10.70
2023-01-10T12:29:35.165Z,10.68
2023-01-10T12:32:03.743Z,9.73
2023-01-10T12:34:58.432Z,10.40
2023-01-10T12:37:37.715Z,8.90
2023-01-10T12:40:18.188Z,9.65
2023-01-10T12:43:08.752Z,8.45
2023-01-10T12:45:46.960Z,10.00
2023-01-10T12:48:19.917Z,8.63
2023-01-10T12:50:53.848Z,7.75
2023-01-10T12:53:43.450Z,7.43
2023-01-10T12:56:13.668Z,7.68
2023-01-10T12:58:47.069Z,7.15
2023-01-10T13:01:31.550Z,6.80
2023-01-10T13:04:03.230Z,6.55
2023-01-10T13:06:34.612Z,6.63
2023-01-10T13:09:07.519Z,6.55
2023-01-10T13:11:40.902Z,6.45
2023-01-10T13:14:10.612Z,6.90
2023-01-10T13:16:47.697Z,6.72
2023-01-10T13:19:14.820Z,6.15
2023-01-10T13:21:42.252Z,6.30
2023-01-10T13:24:24.178Z,6.75
2023-01-10T13:26:57.435Z,7.30
2023-01-10T13:29:26.391Z,7.25
2023-01-10T13:31:57.547Z,6.25
2023-01-10T13:34:27.152Z,7.45
2023-01-10T13:37:02.257Z,7.25
2023-01-10T13:39:32.485Z,7.82
2023-01-10T13:42:17.758Z,6.60
2023-01-10T13:45:02.412Z,7.40
2023-01-10T13:47:59.011Z,6.82
2023-01-10T13:50:25.605Z,7.65
2023-01-10T13:53:12.933Z,6.28
2023-01-10T13:55:39.327Z,8.20
2023-01-10T13:58:11.885Z,7.57
2023-01-10T14:03:56.071Z,6.68
2023-01-10T14:06:28.646Z,6.07
2023-01-10T14:08:58.196Z,5.85
2023-01-10T14:11:47.964Z,6.28
2023-01-10T14:14:23.325Z,5.93
2023-01-10T14:16:52.493Z,5.72
2023-01-10T14:19:31.188Z,5.68
2023-01-10T14:22:00.041Z,6.35
2023-01-10T14:24:28.742Z,4.90
2023-01-10T14:26:58.576Z,5.85
2023-01-10T14:29:25.669Z,4.78
2023-01-10T14:31:52.975Z,5.13
2023-01-10T14:34:25.716Z,4.85
2023-01-10T14:36:55.443Z,4.93
2023-01-10T14:39:22.162Z,4.50
2023-01-10T14:41:59.576Z,4.70
2023-01-10T14:44:46.138Z,4.65
2023-01-10T14:47:34.478Z,5.50
2023-01-10T14:50:05.809Z,5.53
2023-01-10T14:52:32.840Z,4.72
2023-01-10T14:55:12.474Z,4.68
2023-01-10T14:57:38.925Z,4.63
2023-01-10T15:00:09.319Z,4.35
2023-01-10T15:02:37.860Z,4.55
2023-01-10T15:05:21.939Z,4.60
2023-01-10T15:07:48.340Z,4.63
2023-01-10T15:10:36.997Z,4.45
2023-01-10T15:13:05.461Z,4.05
2023-01-10T15:15:37.472Z,4.20
2023-01-10T15:18:27.394Z,4.45
2023-01-10T15:20:54.088Z,4.25
2023-01-10T15:23:20.882Z,4.43
2023-01-10T15:25:55.867Z,4.28
2023-01-10T15:28:22.353Z,3.42
2023-01-10T15:30:48.792Z,4.15
2023-01-10T15:33:19.666Z,3.58
2023-01-10T15:35:46.161Z,4.60
2023-01-10T15:38:20.917Z,4.80
2023-01-10T15:40:57.437Z,4.63
2023-01-10T15:43:26.432Z,3.53
2023-01-10T15:45:55.860Z,4.22
2023-01-10T15:48:33.729Z,3.90
2023-01-10T15:51:26.524Z,3.63
2023-01-10T15:53:57.424Z,3.65
2023-01-10T15:56:37.670Z,3.58
2023-01-10T15:59:05.380Z,3.33
2023-01-10T16:01:33.800Z,3.67
2023-01-10T16:04:04.981Z,3.38
2023-01-10T16:06:36.377Z,3.17
2023-01-10T16:09:07.747Z,3.28
2023-01-10T16:12:05.343Z,3.40
2023-01-10T16:14:33.468Z,4.03
2023-01-10T16:17:00.605Z,3.50
2023-01-10T16:19:27.086Z,3.25
2023-01-10T16:21:57.898Z,3.88
2023-01-10T16:24:27.463Z,3.13
2023-01-10T16:26:55.408Z,3.33
2023-01-10T16:29:22.777Z,3.53
2023-01-10T16:31:49.721Z,3.13
2023-01-10T16:34:16.667Z,3.67
2023-01-10T16:36:43.731Z,3.55
2023-01-10T16:39:19.888Z,4.18
2023-01-10T16:42:05.688Z,3.45
2023-01-10T16:44:33.366Z,3.78
2023-01-10T16:47:00.355Z,3.03
2023-01-10T16:49:26.923Z,3.35
2023-01-10T16:51:53.918Z,3.42
2023-01-10T16:54:22.208Z,3.17
2023-01-10T16:56:49.182Z,3.30
2023-01-10T16:59:17.931Z,2.80
2023-01-10T17:01:52.387Z,3.30
2023-01-10T17:04:24.778Z,3.33
2023-01-10T17:06:51.327Z,3.30
2023-01-10T17:09:29.169Z,3.40
2023-01-10T17:12:02.047Z,2.45
2023-01-10T17:14:30.083Z,2.85
2023-01-10T17:16:56.842Z,2.80
2023-01-10T17:19:24.382Z,3.47
2023-01-10T17:21:50.795Z,3.25
2023-01-10T17:24:17.802Z,3.17
2023-01-10T17:26:44.279Z,3.55
2023-01-10T17:29:10.813Z,3.78
2023-01-10T17:31:37.296Z,3.05
2023-01-10T17:34:03.921Z,3.90
2023-01-10T17:36:32.448Z,3.55
2023-01-10T17:38:59.630Z,3.78
2023-01-10T17:41:26.031Z,3.03
2023-01-10T17:43:52.401Z,3.50
2023-01-10T17:46:18.944Z,3.15
2023-01-10T17:48:45.329Z,3.10
2023-01-10T17:51:13.111Z,3.10
2023-01-10T17:53:40.299Z,2.70
2023-01-10T17:56:07.288Z,3.47
2023-01-10T17:58:34.310Z,2.95
2023-01-10T18:01:00.805Z,3.10
2023-01-10T18:03:27.639Z,3.40
2023-01-10T18:05:56.520Z,3.72
2023-01-10T18:08:23.518Z,2.70
2023-01-10T18:10:50.065Z,3.40
2023-01-10T18:13:18.172Z,2.92
2023-01-10T18:15:47.324Z,3.35
2023-01-10T18:18:14.025Z,3.65
2023-01-10T18:20:44.407Z,3.17
2023-01-10T18:23:21.419Z,3.30
2023-01-10T18:25:56.279Z,3.63
2023-01-10T18:28:40.426Z,3.30
2023-01-10T18:31:12.975Z,3.38
2023-01-10T18:33:39.666Z,3.05
2023-01-10T18:36:08.000Z,2.72
2023-01-10T18:38:35.803Z,4.28
2023-01-10T18:41:02.599Z,3.08
2023-01-10T18:43:29.901Z,3.35
2023-01-10T18:46:05.074Z,2.75
2023-01-10T18:48:31.864Z,3.75
2023-01-10T18:50:59.234Z,3.20
2023-01-10T18:53:25.734Z,3.50
2023-01-10T18:55:56.127Z,3.78
2023-01-10T18:58:27.425Z,3.80
2023-01-10T19:00:53.991Z,2.90
2023-01-10T19:03:20.562Z,3.42
2023-01-10T19:05:46.945Z,3.00
2023-01-10T19:08:16.258Z,3.20
2023-01-10T19:11:07.086Z,3.15
2023-01-10T19:13:30.175Z,3.90
2023-01-10T19:16:15.582Z,3.25
2023-01-10T19:18:42.519Z,3.45
2023-01-10T19:21:14.979Z,2.58
2023-01-10T19:26:12.069Z,3.75
2023-01-10T19:28:38.590Z,2.88
2023-01-10T19:31:05.540Z,3.22
2023-01-10T19:33:37.525Z,3.08
2023-01-10T19:36:06.169Z,3.38
2023-01-10T19:38:32.584Z,3.25
2023-01-10T19:40:59.276Z,3.08
2023-01-10T19:43:25.893Z,2.80
2023-01-10T19:45:53.287Z,3.63
2023-01-10T19:48:19.770Z,4.47
2023-01-10T19:50:46.525Z,3.97
2023-01-10T19:53:12.931Z,3.38
2023-01-10T19:55:39.325Z,4.43
2023-01-10T19:58:05.855Z,3.83
2023-01-10T20:00:32.359Z,3.50
2023-01-10T20:03:00.070Z,3.72
2023-01-10T20:05:26.610Z,3.90
2023-01-10T20:07:53.178Z,3.83
2023-01-10T20:10:19.601Z,3.80
2023-01-10T20:12:46.088Z,3.80
2023-01-10T20:15:12.602Z,5.07
2023-01-10T20:17:40.416Z,4.22
2023-01-10T20:20:07.089Z,4.45
2023-01-10T20:22:33.465Z,4.32
2023-01-10T20:25:00.684Z,3.90
2023-01-10T20:27:28.091Z,4.38
2023-01-10T20:29:54.463Z,4.95
2023-01-10T20:32:21.986Z,4.18
2023-01-10T20:34:49.621Z,4.15
2023-01-10T20:37:16.072Z,3.95
2023-01-10T20:39:42.493Z,4.00
2023-01-10T20:42:08.881Z,4.22
2023-01-10T20:44:35.267Z,4.10
2023-01-10T20:47:01.678Z,4.00
2023-01-10T20:49:28.136Z,4.30
2023-01-10T20:51:54.586Z,3.60
2023-01-10T20:54:20.971Z,4.18
2023-01-10T20:56:47.532Z,4.13
2023-01-10T20:59:13.964Z,3.72
2023-01-10T21:01:40.427Z,4.15
2023-01-10T21:04:07.418Z,4.40
2023-01-10T21:06:34.845Z,4.13
2023-01-10T21:09:01.495Z,4.20
2023-01-10T21:11:27.900Z,4.03
2023-01-10T21:13:54.324Z,3.70
2023-01-10T21:16:21.991Z,3.80
2023-01-10T21:18:48.709Z,3.47
2023-01-10T21:21:17.275Z,4.30
2023-01-10T21:23:44.013Z,3.50
2023-01-10T21:26:12.659Z,4.20
2023-01-10T21:28:46.367Z,3.50
2023-01-10T21:31:18.516Z,3.90
2023-01-10T21:33:45.288Z,3.55
2023-01-10T21:36:13.379Z,3.42
2023-01-10T21:38:40.848Z,3.65
2023-01-10T21:41:11.234Z,3.25
2023-01-10T21:43:37.714Z,3.78
2023-01-10T21:46:04.568Z,3.10
2023-01-10T21:48:31.073Z,2.90
2023-01-10T21:50:58.080Z,2.78
2023-01-10T21:53:24.664Z,2.88
2023-01-10T21:55:51.043Z,2.70
2023-01-10T21:58:17.423Z,2.15
2023-01-10T22:00:43.922Z,2.70
2023-01-10T22:03:10.377Z,2.38
2023-01-10T22:05:36.768Z,2.50
2023-01-10T22:08:03.232Z,2.92
2023-01-10T22:10:30.203Z,1.98
2023-01-10T22:12:56.568Z,1.77
2023-01-10T22:15:22.997Z,2.25
2023-01-10T22:17:49.375Z,1.83
2023-01-10T22:20:16.894Z,1.67
2023-01-10T22:22:43.430Z,1.70
2023-01-10T22:25:09.987Z,1.60
2023-01-10T22:27:36.448Z,1.80
2023-01-10T22:30:02.883Z,1.85
2023-01-10T22:32:29.370Z,1.90
2023-01-10T22:34:55.780Z,1.83
2023-01-10T22:37:22.143Z,1.60
2023-01-10T22:39:48.772Z,1.60
2023-01-10T22:42:15.221Z,1.88
2023-01-10T22:44:41.656Z,1.50
2023-01-10T22:47:08.627Z,1.75
2023-01-10T22:49:35.034Z,1.58
2023-01-10T22:52:01.395Z,1.40
2023-01-10T22:54:27.890Z,1.42
2023-01-10T22:56:54.267Z,1.48
2023-01-10T22:59:20.661Z,1.83
2023-01-10T23:01:47.073Z,1.27
2023-01-10T23:04:13.509Z,0.98
2023-01-10T23:06:39.981Z,1.45
2023-01-10T23:09:06.386Z,1.20
2023-01-10T23:11:32.767Z,1.35
2023-01-10T23:13:59.121Z,1.05
2023-01-10T23:16:32.572Z,1.30
2023-01-10T23:18:59.988Z,1.20
2023-01-10T23:21:28.710Z,1.15
2023-01-10T23:23:55.770Z,1.73
2023-01-10T23:26:22.327Z,1.27
2023-01-10T23:28:49.992Z,1.05
2023-01-10T23:31:19.274Z,1.02
2023-01-10T23:33:46.084Z,1.38
2023-01-10T23:36:12.875Z,1.25
2023-01-10T23:38:39.371Z,0.93
2023-01-10T23:41:06.332Z,0.85
2023-01-10T23:43:32.766Z,1.20
2023-01-10T23:45:59.324Z,0.93
2023-01-10T23:48:25.844Z,1.25
2023-01-10T23:50:52.328Z,1.20
2023-01-10T23:53:19.406Z,1.00
2023-01-10T23:55:46.311Z,1.15
2023-01-10T23:58:12.871Z,1.38
